createdAt,value
2022-11-19T00:02:17.858Z,12.50
2022-11-19T00:05:04.953Z,11.80
2022-11-19T00:07:53.031Z,12.47
2022-11-19T00:10:40.536Z,12.17
2022-11-19T00:13:27.629Z,12.10
2022-11-19T00:16:15.242Z,12.20
2022-11-19T00:19:02.315Z,11.93
2022-11-19T00:21:50.441Z,11.47
2022-11-19T00:24:37.614Z,11.93
2022-11-19T00:27:24.672Z,12.57
2022-11-19T00:30:32.672Z,11.63
2022-11-19T00:33:19.520Z,11.97
2022-11-19T00:36:08.574Z,12.23
2022-11-19T00:38:55.665Z,11.13
2022-11-19T00:41:42.674Z,12.30
2022-11-19T00:44:35.568Z,11.90
2022-11-19T00:47:24.116Z,11.30
2022-11-19T00:50:11.108Z,12.07
2022-11-19T00:52:59.678Z,11.60
2022-11-19T00:55:46.736Z,11.80
2022-11-19T00:58:33.780Z,12.03
2022-11-19T01:01:22.792Z,11.30
2022-11-19T01:04:09.897Z,11.83
2022-11-19T01:06:57.029Z,11.43
2022-11-19T01:09:44.029Z,12.97
2022-11-19T01:12:51.044Z,11.70
2022-11-19T01:15:38.157Z,11.27
2022-11-19T01:18:25.351Z,12.53
2022-11-19T01:21:13.121Z,13.00
2022-11-19T01:24:01.128Z,12.13
2022-11-19T01:26:48.150Z,13.10
2022-11-19T01:29:35.163Z,12.00
2022-11-19T01:32:22.226Z,11.23
2022-11-19T01:35:09.584Z,11.60
2022-11-19T01:37:56.852Z,11.80
2022-11-19T01:40:44.630Z,12.50
2022-11-19T01:43:48.753Z,12.20
2022-11-19T01:46:38.596Z,13.23
2022-11-19T01:49:25.636Z,11.73
2022-11-19T01:52:12.688Z,11.50
2022-11-19T01:54:59.675Z,12.27
2022-11-19T01:57:53.264Z,12.67
2022-11-19T02:00:40.258Z,11.93
2022-11-19T02:03:30.508Z,12.30
2022-11-19T02:06:17.783Z,12.20
2022-11-19T02:09:05.071Z,12.07
2022-11-19T02:12:33.881Z,12.53
2022-11-19T02:15:25.524Z,12.37
2022-11-19T02:18:27.707Z,12.03
2022-11-19T02:21:26.695Z,12.00
2022-11-19T02:24:19.288Z,11.77
2022-11-19T02:27:11.873Z,12.00
2022-11-19T02:30:10.943Z,12.63
2022-11-19T02:33:15.812Z,12.10
2022-11-19T02:36:08.047Z,11.90
2022-11-19T02:39:11.717Z,12.53
2022-11-19T02:42:13.794Z,12.97
2022-11-19T02:45:25.505Z,12.50
2022-11-19T02:48:22.024Z,13.20
2022-11-19T02:51:09.581Z,13.10
2022-11-19T02:53:58.143Z,13.00
2022-11-19T02:56:58.787Z,12.83
2022-11-19T03:00:15.448Z,12.37
2022-11-19T03:03:29.805Z,12.50
2022-11-19T03:06:23.285Z,13.57
2022-11-19T03:09:10.493Z,12.77
2022-11-19T03:12:17.643Z,13.47
2022-11-19T03:15:44.670Z,13.17
2022-11-19T03:18:38.861Z,12.60
2022-11-19T03:21:55.838Z,13.43
2022-11-19T03:24:49.476Z,13.90
2022-11-19T03:27:44.293Z,13.63
2022-11-19T03:30:31.920Z,13.97
2022-11-19T03:33:26.839Z,15.17
2022-11-19T03:36:20.537Z,13.93
2022-11-19T03:39:14.585Z,13.77
2022-11-19T03:42:02.828Z,12.83
2022-11-19T03:44:55.152Z,14.43
2022-11-19T03:47:45.345Z,14.07
2022-11-19T03:50:49.929Z,14.60
2022-11-19T03:53:37.229Z,14.50
2022-11-19T03:56:28.209Z,14.40
2022-11-19T03:59:15.200Z,14.57
2022-11-19T04:02:06.551Z,14.73
2022-11-19T04:04:53.556Z,13.67
2022-11-19T04:07:40.621Z,13.93
2022-11-19T04:10:27.615Z,14.53
2022-11-19T04:13:14.516Z,13.53
2022-11-19T04:16:01.483Z,14.27
2022-11-19T04:18:48.452Z,13.33
2022-11-19T04:21:35.487Z,14.20
2022-11-19T04:24:22.553Z,14.30
2022-11-19T04:27:09.741Z,14.50
2022-11-19T04:29:56.750Z,13.20
2022-11-19T04:32:43.815Z,14.67
2022-11-19T04:35:30.795Z,13.93
2022-11-19T04:38:17.806Z,14.50
2022-11-19T04:41:04.823Z,14.20
2022-11-19T04:43:51.968Z,14.00
2022-11-19T04:46:38.937Z,13.53
2022-11-19T04:49:26.173Z,13.27
2022-11-19T04:52:13.117Z,14.27
2022-11-19T04:55:00.048Z,13.80
2022-11-19T04:57:47.032Z,13.60
2022-11-19T05:00:34.005Z,14.00
2022-11-19T05:03:21.048Z,13.63
2022-11-19T05:06:08.307Z,13.87
2022-11-19T05:08:55.385Z,13.43
2022-11-19T05:11:42.392Z,14.13
2022-11-19T05:14:30.699Z,13.80
2022-11-19T05:17:17.910Z,14.30
2022-11-19T05:20:05.345Z,13.53
2022-11-19T05:22:52.348Z,14.90
2022-11-19T05:25:39.400Z,14.40
2022-11-19T05:28:38.004Z,13.70
2022-11-19T05:31:26.237Z,13.27
2022-11-19T05:34:13.219Z,13.07
2022-11-19T05:37:00.341Z,13.50
2022-11-19T05:39:47.350Z,14.20
2022-11-19T05:42:34.327Z,13.63
2022-11-19T05:45:21.428Z,13.43
2022-11-19T05:48:08.441Z,13.80
2022-11-19T05:50:55.520Z,13.40
2022-11-19T05:53:43.365Z,13.23
2022-11-19T05:56:30.362Z,13.00
2022-11-19T05:59:17.776Z,12.77
2022-11-19T06:02:05.449Z,13.50
2022-11-19T06:04:52.368Z,11.80
2022-11-19T06:07:39.315Z,12.73
2022-11-19T06:10:26.354Z,12.83
2022-11-19T06:13:13.375Z,13.17
2022-11-19T06:16:00.358Z,14.47
2022-11-19T06:18:47.293Z,13.13
2022-11-19T06:21:34.411Z,14.23
2022-11-19T06:24:21.947Z,13.20
2022-11-19T06:27:08.918Z,14.30
2022-11-19T06:29:56.476Z,13.97
2022-11-19T06:32:43.819Z,13.13
2022-11-19T06:35:30.806Z,12.53
2022-11-19T06:38:18.043Z,13.40
2022-11-19T06:41:05.383Z,14.57
2022-11-19T06:43:52.280Z,13.53
2022-11-19T06:46:39.205Z,12.57
2022-11-19T06:49:26.379Z,14.27
2022-11-19T06:52:13.601Z,11.97
2022-11-19T06:55:00.546Z,13.07
2022-11-19T06:57:47.603Z,13.50
2022-11-19T07:00:36.034Z,13.23
2022-11-19T07:03:23.455Z,13.33
2022-11-19T07:06:10.700Z,13.07
2022-11-19T07:08:57.913Z,12.93
2022-11-19T07:11:45.032Z,12.90
2022-11-19T07:14:32.038Z,13.43
2022-11-19T07:17:19.116Z,13.40
2022-11-19T07:20:06.736Z,13.63
2022-11-19T07:22:58.787Z,13.40
2022-11-19T07:25:46.209Z,12.53
2022-11-19T07:28:34.875Z,12.53
2022-11-19T07:31:21.871Z,13.57
2022-11-19T07:34:10.344Z,13.97
2022-11-19T07:36:57.354Z,13.50
2022-11-19T07:39:47.038Z,13.57
2022-11-19T07:42:53.296Z,13.13
2022-11-19T07:45:40.272Z,13.00
2022-11-19T07:48:27.240Z,12.50
2022-11-19T07:51:14.209Z,13.10
2022-11-19T07:54:01.243Z,12.77
2022-11-19T07:56:48.232Z,12.23
2022-11-19T07:59:35.272Z,12.20
2022-11-19T08:02:22.307Z,12.40
2022-11-19T08:05:09.557Z,12.67
2022-11-19T08:07:56.504Z,12.83
2022-11-19T08:10:43.424Z,13.10
2022-11-19T08:13:30.462Z,12.13
2022-11-19T08:16:38.032Z,11.67
2022-11-19T08:19:25.329Z,12.30
2022-11-19T08:22:12.521Z,12.17
2022-11-19T08:24:59.483Z,11.73
2022-11-19T08:27:46.386Z,12.83
2022-11-19T08:30:33.789Z,12.17
2022-11-19T08:33:20.861Z,11.73
2022-11-19T08:36:07.836Z,11.20
2022-11-19T08:38:58.798Z,11.77
2022-11-19T08:42:04.369Z,11.67
2022-11-19T08:44:51.515Z,11.70
2022-11-19T08:47:38.423Z,11.20
2022-11-19T08:50:26.139Z,11.67
2022-11-19T08:53:13.144Z,10.57
2022-11-19T08:56:00.167Z,11.73
2022-11-19T08:58:47.797Z,11.13
2022-11-19T09:01:35.197Z,10.67
2022-11-19T09:04:22.458Z,11.17
2022-11-19T09:07:09.709Z,10.87
2022-11-19T09:09:56.743Z,10.03
2022-11-19T09:12:43.806Z,10.97
2022-11-19T09:15:30.843Z,10.97
2022-11-19T09:18:18.940Z,11.07
2022-11-19T09:21:07.711Z,9.90
2022-11-19T09:23:54.898Z,10.40
2022-11-19T09:26:42.008Z,10.37
2022-11-19T09:29:29.146Z,9.70
2022-11-19T09:32:19.879Z,10.00
2022-11-19T09:35:09.559Z,9.77
2022-11-19T09:37:56.724Z,9.67
2022-11-19T09:40:49.720Z,9.80
2022-11-19T09:44:06.010Z,9.57
2022-11-19T09:47:11.354Z,9.20
2022-11-19T09:50:10.415Z,9.53
2022-11-19T09:53:19.733Z,9.60
2022-11-19T09:56:07.572Z,9.13
2022-11-19T09:58:56.930Z,8.67
2022-11-19T10:01:44.130Z,8.87
2022-11-19T10:04:33.601Z,8.67
2022-11-19T10:07:50.638Z,8.50
2022-11-19T10:10:42.799Z,9.80
2022-11-19T10:13:53.094Z,7.80
2022-11-19T10:16:58.468Z,8.50
2022-11-19T10:19:57.845Z,8.03
2022-11-19T10:23:02.220Z,8.00
2022-11-19T10:25:54.301Z,8.47
2022-11-19T10:28:49.208Z,8.40
2022-11-19T10:31:44.882Z,8.30
2022-11-19T10:34:38.106Z,9.07
2022-11-19T10:37:30.637Z,8.10
2022-11-19T10:40:21.105Z,7.90
2022-11-19T10:43:23.111Z,8.47
2022-11-19T10:46:12.501Z,7.40
2022-11-19T10:49:00.769Z,7.43
2022-11-19T10:51:47.878Z,6.93
2022-11-19T10:54:36.719Z,8.27
2022-11-19T10:57:24.860Z,7.33
2022-11-19T11:00:12.611Z,7.50
2022-11-19T11:03:04.992Z,7.23
2022-11-19T11:06:11.246Z,7.23
2022-11-19T11:08:58.369Z,6.57
2022-11-19T11:12:04.921Z,6.63
2022-11-19T11:18:44.646Z,6.97
2022-11-19T11:21:38.819Z,7.23
2022-11-19T11:24:37.715Z,6.60
2022-11-19T11:27:33.001Z,7.37
2022-11-19T11:30:20.869Z,6.70
2022-11-19T11:33:38.292Z,6.53
2022-11-19T11:36:37.571Z,6.40
2022-11-19T11:39:39.404Z,6.30
2022-11-19T11:42:29.322Z,5.80
2022-11-19T11:45:32.853Z,6.40
2022-11-19T11:48:22.470Z,6.83
2022-11-19T11:51:29.499Z,5.80
2022-11-19T11:54:21.672Z,6.60
2022-11-19T11:57:20.245Z,6.10
2022-11-19T12:00:28.774Z,5.97
2022-11-19T12:03:21.233Z,5.43
2022-11-19T12:06:16.855Z,5.40
2022-11-19T12:09:15.614Z,5.73
2022-11-19T12:12:20.893Z,5.90
2022-11-19T12:15:36.049Z,5.80
2022-11-19T12:18:47.449Z,5.70
2022-11-19T12:22:12.294Z,5.70
2022-11-19T12:25:14.687Z,5.47
2022-11-19T12:28:20.631Z,5.47
2022-11-19T12:31:45.195Z,5.33
2022-11-19T12:34:44.508Z,5.23
2022-11-19T12:37:49.435Z,5.17
2022-11-19T12:40:56.958Z,5.03
2022-11-19T12:43:55.670Z,5.10
2022-11-19T12:47:02.353Z,5.33
2022-11-19T12:50:24.869Z,4.30
2022-11-19T12:53:37.364Z,4.47
2022-11-19T12:56:27.421Z,5.30
2022-11-19T12:59:20.441Z,5.00
2022-11-19T13:02:21.583Z,5.47
2022-11-19T13:05:17.676Z,6.00
2022-11-19T13:08:18.580Z,5.50
2022-11-19T13:11:21.811Z,5.63
2022-11-19T13:14:44.156Z,5.03
2022-11-19T13:17:33.525Z,4.80
2022-11-19T13:20:44.092Z,4.57
2022-11-19T13:23:40.903Z,5.07
2022-11-19T13:26:31.710Z,4.67
2022-11-19T13:29:24.620Z,5.20
2022-11-19T13:32:16.617Z,5.00
2022-11-19T13:35:21.394Z,5.10
2022-11-19T13:38:28.554Z,4.40
2022-11-19T13:41:30.615Z,5.20
2022-11-19T13:44:36.703Z,5.57
2022-11-19T13:47:25.997Z,4.93
2022-11-19T13:50:25.380Z,5.20
2022-11-19T13:53:38.589Z,5.43
2022-11-19T13:56:37.993Z,5.37
2022-11-19T13:59:38.873Z,4.77
2022-11-19T14:02:44.686Z,4.97
2022-11-19T14:06:16.587Z,5.00
2022-11-19T14:09:15.356Z,4.63
2022-11-19T14:12:08.331Z,4.80
2022-11-19T14:15:20.026Z,4.83
2022-11-19T14:18:56.215Z,4.97
2022-11-19T14:22:07.593Z,4.47
2022-11-19T14:25:13.857Z,5.20
2022-11-19T14:28:40.143Z,5.47
2022-11-19T14:31:27.211Z,4.97
2022-11-19T14:34:32.148Z,5.47
2022-11-19T14:37:37.441Z,5.30
2022-11-19T14:40:33.467Z,4.23
2022-11-19T14:43:42.241Z,5.17
2022-11-19T14:46:29.570Z,4.90
2022-11-19T14:49:38.069Z,5.10
2022-11-19T14:53:03.128Z,4.50
2022-11-19T14:55:53.984Z,5.57
2022-11-19T14:59:02.293Z,5.27
2022-11-19T15:01:56.402Z,5.17
2022-11-19T15:04:55.411Z,5.10
2022-11-19T15:07:56.151Z,4.87
2022-11-19T15:11:01.912Z,5.30
2022-11-19T15:14:27.200Z,5.63
2022-11-19T15:17:14.365Z,5.20
2022-11-19T15:20:18.075Z,4.83
2022-11-19T15:23:19.632Z,5.73
2022-11-19T15:26:45.442Z,6.27
2022-11-19T15:30:02.360Z,8.60
2022-11-19T15:32:52.188Z,7.67
2022-11-19T15:36:23.969Z,7.77
2022-11-19T15:39:38.233Z,7.67
2022-11-19T15:42:34.673Z,6.73
2022-11-19T15:45:24.271Z,6.50
2022-11-19T15:48:21.066Z,7.40
2022-11-19T15:51:13.252Z,7.00
2022-11-19T15:54:06.309Z,6.53
2022-11-19T15:56:53.420Z,6.90
2022-11-19T15:59:40.962Z,6.57
2022-11-19T16:02:38.597Z,6.67
2022-11-19T16:05:30.816Z,6.63
2022-11-19T16:08:17.943Z,5.87
2022-11-19T16:11:24.051Z,6.67
2022-11-19T16:14:44.962Z,6.47
2022-11-19T16:17:43.475Z,6.30
2022-11-19T16:20:33.551Z,6.17
2022-11-19T16:23:25.575Z,6.33
2022-11-19T16:26:12.594Z,6.30
2022-11-19T16:29:01.948Z,6.57
2022-11-19T16:31:50.748Z,6.40
2022-11-19T16:34:37.847Z,6.83
2022-11-19T16:37:24.935Z,6.20
2022-11-19T16:40:15.633Z,6.90
2022-11-19T16:43:02.695Z,6.17
2022-11-19T16:45:50.029Z,6.87
2022-11-19T16:48:43.648Z,8.53
2022-11-19T16:51:32.271Z,9.30
2022-11-19T16:54:44.790Z,9.50
2022-11-19T16:57:32.710Z,8.80
2022-11-19T17:00:22.973Z,8.67
2022-11-19T17:03:31.803Z,8.60
2022-11-19T17:06:26.331Z,9.03
2022-11-19T17:09:44.700Z,10.27
2022-11-19T17:12:34.618Z,10.47
2022-11-19T17:15:38.714Z,11.97
2022-11-19T17:18:35.392Z,9.67
2022-11-19T17:21:30.500Z,9.27
2022-11-19T17:24:19.731Z,8.70
2022-11-19T17:27:31.621Z,8.70
2022-11-19T17:30:23.420Z,9.47
2022-11-19T17:33:16.321Z,8.63
2022-11-19T17:36:03.430Z,9.97
2022-11-19T17:38:50.628Z,9.33
2022-11-19T17:41:57.124Z,9.63
2022-11-19T17:44:44.163Z,10.03
2022-11-19T17:47:31.084Z,10.17
2022-11-19T17:50:18.181Z,10.80
2022-11-19T17:53:05.071Z,11.40
2022-11-19T17:55:55.380Z,10.63
2022-11-19T17:58:42.398Z,11.80
2022-11-19T18:01:29.552Z,10.37
2022-11-19T18:04:16.891Z,12.53
2022-11-19T18:07:03.936Z,14.40
2022-11-19T18:09:51.019Z,16.27
2022-11-19T18:12:38.073Z,16.67
2022-11-19T18:15:25.024Z,18.07
2022-11-19T18:18:12.061Z,17.97
2022-11-19T18:21:02.218Z,20.07
2022-11-19T18:23:51.009Z,18.77
2022-11-19T18:26:38.139Z,17.57
2022-11-19T18:29:25.710Z,17.93
2022-11-19T18:32:16.069Z,18.53
2022-11-19T18:35:03.417Z,15.80
2022-11-19T18:37:50.364Z,13.13
2022-11-19T18:40:37.419Z,14.67
2022-11-19T18:43:42.909Z,13.10
2022-11-19T18:46:30.112Z,14.40
2022-11-19T18:49:17.085Z,13.43
2022-11-19T18:52:06.642Z,13.70
2022-11-19T18:54:54.640Z,13.50
2022-11-19T18:57:41.712Z,13.73
2022-11-19T19:00:28.627Z,13.37
2022-11-19T19:03:15.609Z,14.33
2022-11-19T19:06:03.538Z,15.03
2022-11-19T19:08:50.556Z,14.53
2022-11-19T19:11:57.064Z,14.43
2022-11-19T19:14:51.674Z,13.93
2022-11-19T19:17:38.788Z,14.40
2022-11-19T19:20:25.889Z,15.13
2022-11-19T19:23:13.080Z,16.17
2022-11-19T19:26:00.120Z,17.77
2022-11-19T19:28:52.812Z,18.10
2022-11-19T19:31:39.895Z,16.90
2022-11-19T19:34:29.055Z,17.57
2022-11-19T19:37:16.545Z,18.33
2022-11-19T19:40:03.803Z,17.27
2022-11-19T19:42:50.816Z,18.57
2022-11-19T19:45:37.786Z,18.50
2022-11-19T19:48:24.744Z,18.03
2022-11-19T19:51:13.530Z,18.77
2022-11-19T19:54:01.037Z,20.20
2022-11-19T19:56:48.587Z,17.33
2022-11-19T19:59:35.597Z,16.93
2022-11-19T20:02:22.614Z,15.67
2022-11-19T20:05:09.878Z,17.37
2022-11-19T20:07:56.839Z,17.47
2022-11-19T20:10:43.879Z,17.83
2022-11-19T20:13:32.208Z,17.30
2022-11-19T20:16:24.640Z,15.47
2022-11-19T20:19:14.090Z,17.73
2022-11-19T20:22:01.086Z,15.97
2022-11-19T20:24:48.028Z,16.47
2022-11-19T20:27:34.954Z,16.47
2022-11-19T20:30:21.880Z,17.03
2022-11-19T20:33:08.898Z,17.13
2022-11-19T20:35:55.900Z,18.07
2022-11-19T20:38:46.194Z,17.67
2022-11-19T20:41:51.808Z,17.60
2022-11-19T20:44:38.879Z,17.10
2022-11-19T20:47:25.812Z,16.70
2022-11-19T20:50:13.576Z,15.63
2022-11-19T20:53:01.911Z,15.60
2022-11-19T20:56:04.599Z,18.43
2022-11-19T20:58:52.132Z,19.67
2022-11-19T21:01:42.718Z,19.40
2022-11-19T21:04:36.565Z,18.67
2022-11-19T21:07:23.756Z,19.73
2022-11-19T21:10:10.722Z,18.20
2022-11-19T21:13:03.895Z,19.70
2022-11-19T21:15:50.852Z,19.67
2022-11-19T21:18:39.581Z,19.93
2022-11-19T21:21:27.066Z,23.43
2022-11-19T21:24:14.832Z,24.77
2022-11-19T21:27:01.857Z,25.03
2022-11-19T21:29:48.979Z,26.30
2022-11-19T21:32:35.881Z,24.00
2022-11-19T21:35:22.841Z,23.37
2022-11-19T21:38:12.370Z,22.73
2022-11-19T21:40:59.868Z,23.20
2022-11-19T21:43:46.784Z,22.63
2022-11-19T21:46:34.441Z,22.53
2022-11-19T21:49:22.176Z,20.57
2022-11-19T21:52:09.412Z,21.27
2022-11-19T21:54:56.357Z,21.33
2022-11-19T21:57:43.353Z,21.00
2022-11-19T22:00:31.327Z,20.00
2022-11-19T22:03:18.375Z,21.40
2022-11-19T22:06:08.054Z,22.57
2022-11-19T22:08:55.403Z,21.93
2022-11-19T22:11:42.495Z,20.93
2022-11-19T22:14:29.512Z,21.30
2022-11-19T22:17:16.949Z,22.23
2022-11-19T22:20:05.553Z,20.63
2022-11-19T22:22:52.580Z,19.23
2022-11-19T22:25:39.553Z,20.60
2022-11-19T22:28:26.604Z,20.70
2022-11-19T22:31:15.632Z,20.57
2022-11-19T22:34:02.592Z,20.77
2022-11-19T22:36:49.845Z,21.00
2022-11-19T22:39:36.804Z,21.37
2022-11-19T22:42:23.913Z,21.33
2022-11-19T22:45:10.972Z,21.03
2022-11-19T22:47:58.066Z,23.27
2022-11-19T22:50:45.004Z,22.77
2022-11-19T22:53:34.524Z,22.57
2022-11-19T22:56:27.171Z,23.13
2022-11-19T22:59:14.175Z,23.30
2022-11-19T23:02:01.197Z,22.20
2022-11-19T23:04:48.195Z,22.20
2022-11-19T23:07:35.256Z,21.90
2022-11-19T23:10:22.179Z,21.83
2022-11-19T23:13:30.265Z,22.13
2022-11-19T23:16:20.545Z,20.43
2022-11-19T23:19:08.722Z,20.90
2022-11-19T23:21:55.655Z,21.73
2022-11-19T23:24:42.631Z,22.07
2022-11-19T23:27:29.593Z,22.10
2022-11-19T23:30:16.785Z,21.97
2022-11-19T23:33:03.728Z,22.47
2022-11-19T23:35:50.727Z,21.50
2022-11-19T23:38:38.934Z,22.37
2022-11-19T23:41:26.785Z,21.53
2022-11-19T23:44:13.798Z,21.83
2022-11-19T23:47:00.853Z,22.37
2022-11-19T23:49:47.796Z,22.00
2022-11-19T23:52:34.905Z,23.57
2022-11-19T23:55:21.865Z,21.33
2022-11-19T23:58:08.798Z,21.07
